createdAt,value
2022-11-14T00:01:22.496Z,98193.41
2022-11-14T00:04:29.324Z,98195.81
2022-11-14T00:07:33.229Z,98198.28
2022-11-14T00:10:35.893Z,98202.16
2022-11-14T00:13:40.039Z,98195.81
2022-11-14T00:16:42.684Z,98196.88
2022-11-14T00:19:45.479Z,98204.72
2022-11-14T00:22:48.401Z,98207.22
2022-11-14T00:25:51.084Z,98198.06
2022-11-14T00:28:56.036Z,98199.69
2022-11-14T00:31:58.680Z,98198.19
2022-11-14T00:35:01.351Z,98200.16
2022-11-14T00:38:04.050Z,98199.38
2022-11-14T00:41:06.974Z,98194.50
2022-11-14T00:44:11.568Z,98186.13
2022-11-14T00:47:14.245Z,98184.50
2022-11-14T00:50:17.030Z,98189.34
2022-11-14T00:53:19.692Z,98188.63
2022-11-14T00:56:22.384Z,98176.44
2022-11-14T00:59:26.329Z,98179.75
2022-11-14T01:02:28.983Z,98172.28
2022-11-14T01:05:31.629Z,98174.56
2022-11-14T01:08:34.483Z,98174.22
2022-11-14T01:11:37.288Z,98166.59
2022-11-14T01:14:41.883Z,98176.59
2022-11-14T01:17:44.601Z,98171.28
2022-11-14T01:20:48.798Z,98166.00
2022-11-14T01:23:51.442Z,98167.50
2022-11-14T01:26:56.048Z,98163.47
2022-11-14T01:30:00.069Z,98156.91
2022-11-14T01:33:03.273Z,98145.94
2022-11-14T01:36:06.620Z,98138.56
2022-11-14T01:39:09.252Z,98136.63
2022-11-14T01:42:11.900Z,98138.50
2022-11-14T01:45:52.231Z,98145.38
2022-11-14T01:48:58.101Z,98134.13
2022-11-14T01:52:04.390Z,98136.00
2022-11-14T01:55:09.669Z,98130.25
2022-11-14T01:58:12.816Z,98128.53
2022-11-14T02:01:17.190Z,98114.22
2022-11-14T02:04:24.061Z,98107.00
2022-11-14T02:07:29.439Z,98110.81
2022-11-14T02:10:32.193Z,98114.22
2022-11-14T02:13:34.855Z,98110.91
2022-11-14T02:16:40.452Z,98115.53
2022-11-14T02:19:45.696Z,98107.34
2022-11-14T02:22:50.029Z,98113.59
2022-11-14T02:25:52.848Z,98112.31
2022-11-14T02:28:56.383Z,98120.72
2022-11-14T02:31:59.094Z,98123.50
2022-11-14T02:35:01.717Z,98115.06
2022-11-14T02:38:05.864Z,98113.81
2022-11-14T02:41:08.501Z,98112.75
2022-11-14T02:44:11.168Z,98118.44
2022-11-14T02:47:13.909Z,98103.44
2022-11-14T02:50:17.087Z,98092.47
2022-11-14T02:53:21.183Z,98102.28
2022-11-14T02:56:23.884Z,98109.19
2022-11-14T02:59:26.550Z,98108.97
2022-11-14T03:02:29.172Z,98111.72
2022-11-14T03:05:31.799Z,98117.03
2022-11-14T03:08:36.261Z,98121.06
2022-11-14T03:11:39.805Z,98118.25
2022-11-14T03:14:42.433Z,98110.56
2022-11-14T03:17:45.056Z,98099.69
2022-11-14T03:20:47.777Z,98100.06
2022-11-14T03:23:51.846Z,98080.13
2022-11-14T03:26:54.591Z,98076.78
2022-11-14T03:29:57.674Z,98077.72
2022-11-14T03:33:00.341Z,98072.28
2022-11-14T03:36:03.844Z,98076.44
2022-11-14T03:39:09.127Z,98068.97
2022-11-14T03:42:11.856Z,98072.28
2022-11-14T03:45:14.544Z,98062.81
2022-11-14T03:48:17.268Z,98048.38
2022-11-14T03:51:19.927Z,98042.25
2022-11-14T03:54:23.953Z,98037.31
2022-11-14T03:57:26.886Z,98044.53
2022-11-14T04:00:29.843Z,98053.09
2022-11-14T04:03:32.562Z,98061.06
2022-11-14T04:06:35.224Z,98080.94
2022-11-14T04:09:39.169Z,98071.38
2022-11-14T04:12:41.792Z,98083.25
2022-11-14T04:15:44.395Z,98075.53
2022-11-14T04:18:47.159Z,98074.88
2022-11-14T04:21:49.825Z,98065.41
2022-11-14T04:24:54.044Z,98079.00
2022-11-14T04:27:56.689Z,98068.97
2022-11-14T04:31:00.295Z,98065.03
2022-11-14T04:34:03.110Z,98062.16
2022-11-14T04:37:05.728Z,98061.81
2022-11-14T04:40:11.110Z,98053.13
2022-11-14T04:43:13.754Z,98051.97
2022-11-14T04:46:16.432Z,98031.88
2022-11-14T04:49:19.080Z,98020.44
2022-11-14T04:52:21.683Z,98012.94
2022-11-14T04:55:26.105Z,98021.59
2022-11-14T04:58:29.467Z,98032.69
2022-11-14T05:01:32.417Z,98042.28
2022-11-14T05:04:35.190Z,98039.22
2022-11-14T05:07:37.933Z,98024.13
2022-11-14T05:10:45.529Z,98007.75
2022-11-14T05:13:48.496Z,98004.03
2022-11-14T05:16:51.140Z,98003.63
2022-11-14T05:19:53.777Z,98007.06
2022-11-14T05:22:58.400Z,98001.56
2022-11-14T05:26:07.663Z,98004.66
2022-11-14T05:29:10.387Z,98005.16
2022-11-14T05:32:16.317Z,98012.53
2022-11-14T05:35:19.159Z,98017.47
2022-11-14T05:38:21.862Z,98011.38
2022-11-14T05:41:26.095Z,98009.78
2022-11-14T05:44:28.743Z,97996.53
2022-11-14T05:47:31.523Z,97995.56
2022-11-14T05:50:34.169Z,97996.72
2022-11-14T05:53:36.934Z,98002.72
2022-11-14T05:56:40.944Z,98002.47
2022-11-14T05:59:43.588Z,98002.47
2022-11-14T06:02:46.829Z,98008.94
2022-11-14T06:05:49.461Z,98007.91
2022-11-14T06:08:52.138Z,98013.44
2022-11-14T06:11:56.126Z,98013.44
2022-11-14T06:14:58.816Z,98024.38
2022-11-14T06:18:01.437Z,98030.25
2022-11-14T06:21:06.659Z,98032.47
2022-11-14T06:24:09.428Z,98024.63
2022-11-14T06:27:13.445Z,98023.69
2022-11-14T06:30:16.636Z,98018.03
2022-11-14T06:33:19.305Z,98020.34
2022-11-14T06:36:24.399Z,98008.56
2022-11-14T06:39:27.033Z,98022.72
2022-11-14T06:42:31.287Z,98019.38
2022-11-14T06:45:33.903Z,98025.34
2022-11-14T06:48:36.846Z,98026.00
2022-11-14T06:51:39.484Z,98030.38
2022-11-14T06:54:42.295Z,98024.47
2022-11-14T06:57:46.347Z,98019.59
2022-11-14T07:00:49.056Z,98009.97
2022-11-14T07:03:54.860Z,98004.59
2022-11-14T07:06:57.591Z,98008.31
2022-11-14T07:10:00.269Z,98017.13
2022-11-14T07:13:04.349Z,98011.16
2022-11-14T07:16:07.590Z,98010.25
2022-11-14T07:19:13.396Z,97998.13
2022-11-14T07:22:16.078Z,98008.59
2022-11-14T07:25:18.688Z,98008.94
2022-11-14T07:28:22.710Z,98023.72
2022-11-14T07:31:25.389Z,98017.28
2022-11-14T07:34:28.025Z,98024.91
2022-11-14T07:37:30.693Z,98029.66
2022-11-14T07:40:33.378Z,98024.75
2022-11-14T07:43:38.452Z,98027.28
2022-11-14T07:46:41.113Z,98028.66
2022-11-14T07:49:43.741Z,98027.59
2022-11-14T07:52:51.600Z,98037.75
2022-11-14T07:55:54.336Z,98039.69
2022-11-14T07:58:59.365Z,98040.13
2022-11-14T08:02:02.019Z,98047.44
2022-11-14T08:05:05.144Z,98058.50
2022-11-14T08:08:07.913Z,98051.75
2022-11-14T08:11:10.568Z,98055.16
2022-11-14T08:14:14.521Z,98059.09
2022-11-14T08:17:17.208Z,98055.00
2022-11-14T08:20:20.037Z,98053.22
2022-11-14T08:23:25.037Z,98060.22
2022-11-14T08:26:31.545Z,98073.34
2022-11-14T08:29:38.619Z,98083.91
2022-11-14T08:32:41.284Z,98088.09
2022-11-14T08:35:43.889Z,98098.53
2022-11-14T08:38:46.521Z,98084.91
2022-11-14T08:41:49.253Z,98085.31
2022-11-14T08:44:53.265Z,98083.97
2022-11-14T08:47:56.077Z,98088.13
2022-11-14T08:50:59.064Z,98078.72
2022-11-14T08:54:01.787Z,98082.59
2022-11-14T08:57:06.495Z,98078.38
2022-11-14T09:00:12.045Z,98073.50
2022-11-14T09:03:16.043Z,98066.59
2022-11-14T09:06:18.908Z,98076.03
2022-11-14T09:09:21.661Z,98067.81
2022-11-14T09:12:24.376Z,98071.06
2022-11-14T09:15:29.109Z,98078.81
2022-11-14T09:18:32.411Z,98076.19
2022-11-14T09:21:35.462Z,98065.25
2022-11-14T09:24:38.152Z,98052.16
2022-11-14T09:27:40.781Z,98058.28
2022-11-14T09:30:44.952Z,98056.72
2022-11-14T09:33:47.623Z,98057.75
2022-11-14T09:36:50.504Z,98050.81
2022-11-14T09:39:53.171Z,98055.38
2022-11-14T09:43:11.811Z,98055.09
2022-11-14T09:46:21.540Z,98044.41
2022-11-14T09:49:31.157Z,98036.13
2022-11-14T09:52:38.110Z,98033.72
2022-11-14T09:55:41.344Z,98036.13
2022-11-14T09:58:44.084Z,98034.78
2022-11-14T10:01:52.757Z,98029.44
2022-11-14T10:05:10.018Z,98033.72
2022-11-14T10:08:23.911Z,98038.81
2022-11-14T10:11:34.829Z,98024.34
2022-11-14T10:14:53.315Z,98018.97
2022-11-14T10:18:10.052Z,98015.44
2022-11-14T10:21:37.327Z,98025.84
2022-11-14T10:24:57.284Z,98022.59
2022-11-14T10:28:12.298Z,98012.38
2022-11-14T10:31:28.014Z,98017.66
2022-11-14T10:34:36.773Z,98020.47
2022-11-14T10:37:47.552Z,98022.59
2022-11-14T10:40:53.821Z,98022.97
2022-11-14T10:43:57.324Z,98019.84
2022-11-14T10:47:05.355Z,98025.31
2022-11-14T10:50:19.403Z,98017.63
2022-11-14T10:53:29.649Z,98018.44
2022-11-14T10:56:32.327Z,98009.34
2022-11-14T10:59:34.976Z,98015.09
2022-11-14T11:02:50.031Z,98018.47
2022-11-14T11:05:57.512Z,98015.44
2022-11-14T11:09:17.752Z,98013.34
2022-11-14T11:12:23.284Z,97997.94
2022-11-14T11:15:31.440Z,97987.94
2022-11-14T11:18:35.655Z,98000.00
2022-11-14T11:21:49.259Z,97995.22
2022-11-14T11:24:51.951Z,97992.00
2022-11-14T11:28:11.733Z,97984.22
2022-11-14T11:31:14.413Z,97993.41
2022-11-14T11:34:20.408Z,97988.31
2022-11-14T11:40:31.985Z,97990.47
2022-11-14T11:43:43.790Z,97981.31
2022-11-14T11:46:51.490Z,97983.50
2022-11-14T11:49:54.964Z,97991.59
2022-11-14T11:53:08.053Z,97982.28
2022-11-14T11:56:13.890Z,97982.97
2022-11-14T11:59:27.694Z,97978.44
2022-11-14T12:02:30.441Z,97971.03
2022-11-14T12:05:48.597Z,97965.69
2022-11-14T12:09:18.983Z,97968.38
2022-11-14T12:12:33.451Z,97976.19
2022-11-14T12:15:49.310Z,97974.13
2022-11-14T12:19:36.555Z,97977.53
2022-11-14T12:23:07.969Z,97974.56
2022-11-14T12:26:31.136Z,97969.47
2022-11-14T12:29:56.615Z,97967.19
2022-11-14T12:33:02.921Z,97969.03
2022-11-14T12:36:10.120Z,97964.63
2022-11-14T12:39:23.548Z,97957.63
2022-11-14T12:42:27.745Z,97962.34
2022-11-14T12:45:59.754Z,97946.38
2022-11-14T12:49:02.488Z,97948.13
2022-11-14T12:52:05.989Z,97941.41
2022-11-14T12:55:47.059Z,97951.16
2022-11-14T12:59:13.401Z,97953.81
2022-11-14T13:02:43.387Z,97944.75
2022-11-14T13:05:55.270Z,97945.97
2022-11-14T13:09:35.050Z,97943.91
2022-11-14T13:12:55.846Z,97946.56
2022-11-14T13:16:18.879Z,97951.28
2022-11-14T13:19:40.328Z,97950.25
2022-11-14T13:22:44.733Z,97946.28
2022-11-14T13:25:47.389Z,97943.06
2022-11-14T13:28:51.839Z,97953.38
2022-11-14T13:31:55.856Z,97941.53
2022-11-14T13:35:05.099Z,97946.94
2022-11-14T13:39:01.334Z,97947.09
2022-11-14T13:42:19.087Z,97949.06
2022-11-14T13:45:46.124Z,97935.41
2022-11-14T13:49:06.613Z,97941.41
2022-11-14T13:52:11.480Z,97941.59
2022-11-14T13:55:22.746Z,97933.16
2022-11-14T13:58:42.003Z,97941.09
2022-11-14T14:02:06.090Z,97939.84
2022-11-14T14:05:22.019Z,97930.78
2022-11-14T14:08:41.731Z,97938.56
2022-11-14T14:11:57.049Z,97931.78
2022-11-14T14:15:09.945Z,97933.97
2022-11-14T14:18:23.895Z,97933.47
2022-11-14T14:21:38.767Z,97923.97
2022-11-14T14:24:50.752Z,97933.09
2022-11-14T14:28:07.167Z,97935.66
2022-11-14T14:31:13.134Z,97938.91
2022-11-14T14:34:23.955Z,97938.78
2022-11-14T14:37:29.295Z,97935.50
2022-11-14T14:40:34.479Z,97929.66
2022-11-14T14:43:37.817Z,97933.22
2022-11-14T14:46:40.468Z,97923.38
2022-11-14T14:49:44.250Z,97936.31
2022-11-14T14:52:57.401Z,97936.97
2022-11-14T14:56:01.888Z,97934.16
2022-11-14T14:59:17.587Z,97940.47
2022-11-14T15:02:23.969Z,97939.25
2022-11-14T15:05:29.060Z,97932.91
2022-11-14T15:08:38.086Z,97941.03
2022-11-14T15:11:44.348Z,97940.63
2022-11-14T15:14:48.947Z,97945.56
2022-11-14T15:17:53.123Z,97943.47
2022-11-14T15:21:15.263Z,97952.34
2022-11-14T15:24:20.840Z,97939.47
2022-11-14T15:27:23.585Z,97946.47
2022-11-14T15:30:30.801Z,97946.47
2022-11-14T15:33:36.236Z,97944.63
2022-11-14T15:37:22.647Z,97952.19
2022-11-14T15:40:26.890Z,97959.03
2022-11-14T15:43:49.300Z,97959.13
2022-11-14T15:46:52.134Z,97958.59
2022-11-14T15:50:02.925Z,97963.81
2022-11-14T15:53:07.973Z,97956.59
2022-11-14T15:56:14.179Z,97960.91
2022-11-14T15:59:16.904Z,97966.59
2022-11-14T16:02:22.869Z,97965.69
2022-11-14T16:05:29.433Z,97968.53
2022-11-14T16:08:32.396Z,97967.28
2022-11-14T16:11:36.657Z,97968.78
2022-11-14T16:14:39.411Z,97975.31
2022-11-14T16:17:43.584Z,97973.47
2022-11-14T16:20:46.234Z,97972.22
2022-11-14T16:23:49.932Z,97977.72
2022-11-14T16:26:53.980Z,97975.09
2022-11-14T16:29:56.977Z,97984.00
2022-11-14T16:33:00.066Z,97984.59
2022-11-14T16:36:02.829Z,97992.44
2022-11-14T16:39:11.161Z,97990.09
2022-11-14T16:42:15.234Z,97987.22
2022-11-14T16:45:20.225Z,98002.84
2022-11-14T16:48:22.957Z,98011.03
2022-11-14T16:54:48.373Z,98012.50
2022-11-14T16:57:52.429Z,98010.84
2022-11-14T17:00:55.164Z,98011.38
2022-11-14T17:03:59.956Z,98014.41
2022-11-14T17:07:02.729Z,98017.69
2022-11-14T17:10:06.830Z,98023.91
2022-11-14T17:13:11.509Z,98023.72
2022-11-14T17:16:14.234Z,98024.25
2022-11-14T17:19:16.969Z,98031.00
2022-11-14T17:22:20.791Z,98033.09
2022-11-14T17:25:24.085Z,98025.34
2022-11-14T17:28:28.361Z,98030.38
2022-11-14T17:31:36.501Z,98030.56
2022-11-14T17:34:40.533Z,98020.88
2022-11-14T17:37:43.335Z,98022.41
2022-11-14T17:40:46.070Z,98027.75
2022-11-14T17:43:56.620Z,98020.81
2022-11-14T17:46:59.379Z,98026.94
2022-11-14T17:50:02.039Z,98035.53
2022-11-14T17:53:04.723Z,98030.91
2022-11-14T17:56:10.838Z,98030.16
2022-11-14T17:59:15.314Z,98027.97
2022-11-14T18:02:19.270Z,98027.16
2022-11-14T18:05:22.150Z,98021.75
2022-11-14T18:08:25.857Z,98017.94
2022-11-14T18:11:28.574Z,98026.16
2022-11-14T18:14:32.767Z,98022.41
2022-11-14T18:17:35.903Z,98020.00
2022-11-14T18:20:39.065Z,98019.44
2022-11-14T18:23:41.914Z,98011.56
2022-11-14T18:26:44.653Z,97998.41
2022-11-14T18:29:48.807Z,98001.63
2022-11-14T18:32:51.457Z,97993.06
2022-11-14T18:35:58.389Z,97987.50
2022-11-14T18:39:01.217Z,97989.69
2022-11-14T18:42:04.158Z,97996.47
2022-11-14T18:45:10.244Z,98012.06
2022-11-14T18:48:13.047Z,97999.47
2022-11-14T18:51:18.477Z,98003.31
2022-11-14T18:54:21.205Z,97997.44
2022-11-14T18:57:23.920Z,97996.97
2022-11-14T19:00:28.091Z,97994.59
2022-11-14T19:03:32.338Z,98005.91
2022-11-14T19:06:37.056Z,98012.94
2022-11-14T19:09:40.903Z,98001.22
2022-11-14T19:12:43.684Z,97998.50
2022-11-14T19:15:47.751Z,98006.53
2022-11-14T19:18:50.416Z,98000.66
2022-11-14T19:21:53.124Z,97997.44
2022-11-14T19:24:57.828Z,98003.09
2022-11-14T19:28:00.535Z,98005.25
2022-11-14T19:31:05.494Z,98008.22
2022-11-14T19:34:09.462Z,98002.66
2022-11-14T19:37:12.140Z,98007.53
2022-11-14T19:40:15.420Z,98020.16
2022-11-14T19:43:18.727Z,98018.28
2022-11-14T19:46:25.021Z,98026.84
2022-11-14T19:49:27.743Z,98026.88
2022-11-14T19:52:30.484Z,98029.03
2022-11-14T19:55:33.222Z,98033.31
2022-11-14T19:58:36.419Z,98028.50
2022-11-14T20:01:41.997Z,98018.34
2022-11-14T20:04:47.671Z,98033.34
2022-11-14T20:07:50.388Z,98029.06
2022-11-14T20:10:58.158Z,98030.41
2022-11-14T20:14:02.204Z,98025.34
2022-11-14T20:17:06.339Z,98025.06
2022-11-14T20:20:09.826Z,98027.22
2022-11-14T20:23:12.990Z,98035.00
2022-11-14T20:26:17.272Z,98022.94
2022-11-14T20:29:20.085Z,98031.00
2022-11-14T20:32:24.208Z,98027.53
2022-11-14T20:35:26.955Z,98033.69
2022-11-14T20:38:29.861Z,98033.69
2022-11-14T20:41:32.796Z,98032.88
2022-11-14T20:44:35.618Z,98035.84
2022-11-14T20:47:39.682Z,98030.47
2022-11-14T20:50:42.408Z,98031.53
2022-11-14T20:53:45.500Z,98034.22
2022-11-14T20:56:48.217Z,98032.34
2022-11-14T20:59:51.556Z,98033.41
2022-11-14T21:02:55.650Z,98035.03
2022-11-14T21:06:00.860Z,98031.50
2022-11-14T21:09:03.540Z,98028.06
2022-11-14T21:12:06.616Z,98028.31
2022-11-14T21:15:10.380Z,98030.72
2022-11-14T21:18:14.384Z,98024.00
2022-11-14T21:21:18.689Z,98023.50
2022-11-14T21:24:21.373Z,98028.31
2022-11-14T21:31:04.406Z,98021.63
2022-11-14T21:34:17.828Z,98018.16
2022-11-14T21:37:37.885Z,98021.38
2022-11-14T21:40:52.388Z,98014.41
2022-11-14T21:44:02.973Z,98021.38
2022-11-14T21:47:11.714Z,98014.41
2022-11-14T21:50:28.590Z,98023.53
2022-11-14T21:53:40.198Z,98022.75
2022-11-14T21:56:51.771Z,98020.06
2022-11-14T22:00:03.305Z,98023.03
2022-11-14T22:03:31.636Z,98018.75
2022-11-14T22:06:56.181Z,98016.06
2022-11-14T22:10:13.522Z,98017.94
2022-11-14T22:13:22.070Z,98020.59
2022-11-14T22:16:29.450Z,98011.00
2022-11-14T22:19:39.894Z,98018.19
2022-11-14T22:22:52.876Z,98019.78
2022-11-14T22:26:04.776Z,98017.41
2022-11-14T22:29:14.543Z,98019.53
2022-11-14T22:32:25.332Z,98015.78
2022-11-14T22:35:48.789Z,98015.53
2022-11-14T22:39:04.295Z,98011.53
2022-11-14T22:42:19.887Z,98011.00
2022-11-14T22:45:33.722Z,98011.50
2022-11-14T22:48:47.421Z,98020.34
2022-11-14T22:52:00.254Z,98018.47
2022-11-14T22:55:18.330Z,98013.63
2022-11-14T22:58:43.097Z,98014.94
2022-11-14T23:01:56.991Z,98012.53
2022-11-14T23:05:13.757Z,98010.06
2022-11-14T23:08:29.257Z,98007.06
2022-11-14T23:11:48.805Z,98013.19
2022-11-14T23:15:03.599Z,98014.22
2022-11-14T23:18:36.375Z,98012.34
2022-11-14T23:21:55.378Z,98014.19
2022-11-14T23:28:54.661Z,98004.53
2022-11-14T23:32:06.964Z,98009.03
2022-11-14T23:35:20.404Z,98004.41
2022-11-14T23:38:48.361Z,97999.81
2022-11-14T23:41:58.862Z,97990.44
2022-11-14T23:45:16.473Z,97987.19
2022-11-14T23:48:26.635Z,97980.13
2022-11-14T23:51:34.828Z,97985.25
2022-11-14T23:54:51.661Z,97981.69
2022-11-14T23:58:00.879Z,97980.88
